sensor_id;sensor_type;location;lat;lon;timestamp;P1;durP1;ratioP1;P2;durP2;ratioP2
50605;SDS011;36557;53.572;10.170;2023-08-06T00:00:24;2.00;;;1.13;;
50605;SDS011;36557;53.572;10.170;2023-08-06T00:02:50;3.47;;;1.08;;
50605;SDS011;36557;53.572;10.170;2023-08-06T00:05:16;1.35;;;1.02;;
50605;SDS011;36557;53.572;10.170;2023-08-06T00:07:43;1.73;;;1.20;;
50605;SDS011;36557;53.572;10.170;2023-08-06T00:10:10;1.30;;;0.98;;
50605;SDS011;36557;53.572;10.170;2023-08-06T00:12:36;1.40;;;1.20;;
50605;SDS011;36557;53.572;10.170;2023-08-06T00:15:02;2.28;;;1.08;;
50605;SDS011;36557;53.572;10.170;2023-08-06T00:17:28;1.33;;;0.98;;
50605;SDS011;36557;53.572;10.170;2023-08-06T00:19:54;2.42;;;0.90;;
50605;SDS011;36557;53.572;10.170;2023-08-06T00:22:19;1.38;;;1.00;;
50605;SDS011;36557;53.572;10.170;2023-08-06T00:24:45;1.63;;;1.10;;
50605;SDS011;36557;53.572;10.170;2023-08-06T00:27:11;2.00;;;1.27;;
50605;SDS011;36557;53.572;10.170;2023-08-06T00:29:36;2.45;;;1.13;;
50605;SDS011;36557;53.572;10.170;2023-08-06T00:32:02;1.80;;;1.30;;
50605;SDS011;36557;53.572;10.170;2023-08-06T00:34:28;2.67;;;1.25;;
50605;SDS011;36557;53.572;10.170;2023-08-06T00:36:54;2.42;;;1.30;;
50605;SDS011;36557;53.572;10.170;2023-08-06T00:39:20;1.40;;;1.20;;
50605;SDS011;36557;53.572;10.170;2023-08-06T00:41:45;1.67;;;1.08;;
50605;SDS011;36557;53.572;10.170;2023-08-06T00:44:14;2.40;;;1.25;;
50605;SDS011;36557;53.572;10.170;2023-08-06T00:46:40;4.75;;;1.63;;
50605;SDS011;36557;53.572;10.170;2023-08-06T00:49:06;1.92;;;1.20;;
50605;SDS011;36557;53.572;10.170;2023-08-06T00:51:32;1.73;;;1.30;;
50605;SDS011;36557;53.572;10.170;2023-08-06T00:53:58;2.47;;;1.20;;
50605;SDS011;36557;53.572;10.170;2023-08-06T00:56:24;2.65;;;1.30;;
50605;SDS011;36557;53.572;10.170;2023-08-06T00:58:50;2.47;;;1.45;;
50605;SDS011;36557;53.572;10.170;2023-08-06T01:01:16;3.60;;;1.50;;
50605;SDS011;36557;53.572;10.170;2023-08-06T01:03:42;2.65;;;1.17;;
50605;SDS011;36557;53.572;10.170;2023-08-06T01:06:08;4.75;;;1.40;;
50605;SDS011;36557;53.572;10.170;2023-08-06T01:13:56;2.33;;;1.50;;
50605;SDS011;36557;53.572;10.170;2023-08-06T01:16:27;3.30;;;1.40;;
50605;SDS011;36557;53.572;10.170;2023-08-06T01:18:55;2.63;;;1.63;;
50605;SDS011;36557;53.572;10.170;2023-08-06T01:21:23;3.53;;;2.08;;
50605;SDS011;36557;53.572;10.170;2023-08-06T01:23:49;2.53;;;1.50;;
50605;SDS011;36557;53.572;10.170;2023-08-06T01:28:56;2.38;;;1.60;;
50605;SDS011;36557;53.572;10.170;2023-08-06T01:31:32;3.10;;;1.50;;
50605;SDS011;36557;53.572;10.170;2023-08-06T01:34:01;1.83;;;1.42;;
50605;SDS011;36557;53.572;10.170;2023-08-06T01:36:29;3.30;;;1.60;;
50605;SDS011;36557;53.572;10.170;2023-08-06T01:38:56;5.60;;;1.80;;
50605;SDS011;36557;53.572;10.170;2023-08-06T01:41:22;2.55;;;1.88;;
50605;SDS011;36557;53.572;10.170;2023-08-06T01:43:48;3.08;;;2.03;;
50605;SDS011;36557;53.572;10.170;2023-08-06T01:46:14;2.88;;;2.00;;
50605;SDS011;36557;53.572;10.170;2023-08-06T01:48:39;3.20;;;1.98;;
50605;SDS011;36557;53.572;10.170;2023-08-06T01:51:05;3.20;;;1.95;;
50605;SDS011;36557;53.572;10.170;2023-08-06T01:53:32;2.67;;;1.55;;
50605;SDS011;36557;53.572;10.170;2023-08-06T01:55:58;4.65;;;2.03;;
50605;SDS011;36557;53.572;10.170;2023-08-06T01:58:24;3.70;;;2.05;;
50605;SDS011;36557;53.572;10.170;2023-08-06T02:00:50;2.22;;;1.63;;
50605;SDS011;36557;53.572;10.170;2023-08-06T02:03:15;2.58;;;1.73;;
50605;SDS011;36557;53.572;10.170;2023-08-06T02:05:41;3.20;;;2.00;;
50605;SDS011;36557;53.572;10.170;2023-08-06T02:08:07;3.15;;;2.47;;
50605;SDS011;36557;53.572;10.170;2023-08-06T02:10:33;2.90;;;2.03;;
50605;SDS011;36557;53.572;10.170;2023-08-06T02:12:59;3.83;;;2.15;;
50605;SDS011;36557;53.572;10.170;2023-08-06T02:15:24;2.90;;;2.10;;
50605;SDS011;36557;53.572;10.170;2023-08-06T02:17:50;3.35;;;2.45;;
50605;SDS011;36557;53.572;10.170;2023-08-06T02:20:16;3.65;;;2.00;;
50605;SDS011;36557;53.572;10.170;2023-08-06T02:22:41;3.33;;;1.80;;
50605;SDS011;36557;53.572;10.170;2023-08-06T02:25:07;3.38;;;2.25;;
50605;SDS011;36557;53.572;10.170;2023-08-06T02:27:33;3.55;;;2.13;;
50605;SDS011;36557;53.572;10.170;2023-08-06T02:29:59;3.38;;;1.88;;
50605;SDS011;36557;53.572;10.170;2023-08-06T02:32:24;3.85;;;1.85;;
50605;SDS011;36557;53.572;10.170;2023-08-06T02:34:50;4.20;;;2.15;;
50605;SDS011;36557;53.572;10.170;2023-08-06T02:37:16;3.63;;;1.90;;
50605;SDS011;36557;53.572;10.170;2023-08-06T02:39:42;3.28;;;2.25;;
50605;SDS011;36557;53.572;10.170;2023-08-06T02:42:08;3.17;;;2.05;;
50605;SDS011;36557;53.572;10.170;2023-08-06T02:44:34;2.55;;;1.75;;
50605;SDS011;36557;53.572;10.170;2023-08-06T02:47:00;3.70;;;1.80;;
50605;SDS011;36557;53.572;10.170;2023-08-06T02:49:26;2.92;;;2.30;;
50605;SDS011;36557;53.572;10.170;2023-08-06T02:51:52;4.43;;;2.30;;
50605;SDS011;36557;53.572;10.170;2023-08-06T02:54:21;2.90;;;1.70;;
50605;SDS011;36557;53.572;10.170;2023-08-06T02:56:47;3.95;;;2.28;;
50605;SDS011;36557;53.572;10.170;2023-08-06T02:59:13;3.35;;;2.35;;
50605;SDS011;36557;53.572;10.170;2023-08-06T03:01:38;3.00;;;2.08;;
50605;SDS011;36557;53.572;10.170;2023-08-06T03:04:05;3.10;;;1.92;;
50605;SDS011;36557;53.572;10.170;2023-08-06T03:06:31;3.83;;;2.00;;
50605;SDS011;36557;53.572;10.170;2023-08-06T03:09:00;3.63;;;2.17;;
50605;SDS011;36557;53.572;10.170;2023-08-06T03:11:25;3.22;;;2.10;;
50605;SDS011;36557;53.572;10.170;2023-08-06T03:13:51;3.08;;;1.95;;
50605;SDS011;36557;53.572;10.170;2023-08-06T03:16:17;4.57;;;2.17;;
50605;SDS011;36557;53.572;10.170;2023-08-06T03:18:42;3.72;;;2.05;;
50605;SDS011;36557;53.572;10.170;2023-08-06T03:21:08;3.95;;;1.80;;
50605;SDS011;36557;53.572;10.170;2023-08-06T03:23:34;4.10;;;1.88;;
50605;SDS011;36557;53.572;10.170;2023-08-06T03:26:03;2.75;;;1.90;;
50605;SDS011;36557;53.572;10.170;2023-08-06T03:28:29;6.70;;;1.80;;
50605;SDS011;36557;53.572;10.170;2023-08-06T03:30:59;4.18;;;1.90;;
50605;SDS011;36557;53.572;10.170;2023-08-06T03:33:25;2.50;;;1.90;;
50605;SDS011;36557;53.572;10.170;2023-08-06T03:35:51;2.83;;;2.13;;
50605;SDS011;36557;53.572;10.170;2023-08-06T03:38:17;4.07;;;2.10;;
50605;SDS011;36557;53.572;10.170;2023-08-06T03:40:43;6.53;;;2.45;;
50605;SDS011;36557;53.572;10.170;2023-08-06T03:43:09;3.42;;;2.00;;
50605;SDS011;36557;53.572;10.170;2023-08-06T03:45:35;5.07;;;2.20;;
50605;SDS011;36557;53.572;10.170;2023-08-06T03:48:01;3.95;;;2.10;;
50605;SDS011;36557;53.572;10.170;2023-08-06T03:50:28;3.05;;;2.00;;
50605;SDS011;36557;53.572;10.170;2023-08-06T03:52:54;3.22;;;2.15;;
50605;SDS011;36557;53.572;10.170;2023-08-06T03:55:20;3.45;;;2.30;;
50605;SDS011;36557;53.572;10.170;2023-08-06T03:57:46;4.43;;;1.90;;
50605;SDS011;36557;53.572;10.170;2023-08-06T04:00:12;4.53;;;1.70;;
50605;SDS011;36557;53.572;10.170;2023-08-06T04:02:38;3.45;;;2.05;;
50605;SDS011;36557;53.572;10.170;2023-08-06T04:05:04;4.80;;;1.98;;
50605;SDS011;36557;53.572;10.170;2023-08-06T04:07:31;3.55;;;1.75;;
50605;SDS011;36557;53.572;10.170;2023-08-06T04:10:00;6.75;;;2.65;;
50605;SDS011;36557;53.572;10.170;2023-08-06T04:12:26;2.75;;;1.95;;
50605;SDS011;36557;53.572;10.170;2023-08-06T04:14:53;4.53;;;1.95;;
50605;SDS011;36557;53.572;10.170;2023-08-06T04:17:22;4.93;;;2.20;;
50605;SDS011;36557;53.572;10.170;2023-08-06T04:19:52;2.80;;;2.03;;
50605;SDS011;36557;53.572;10.170;2023-08-06T04:22:19;2.30;;;1.98;;
50605;SDS011;36557;53.572;10.170;2023-08-06T04:24:46;3.58;;;1.95;;
50605;SDS011;36557;53.572;10.170;2023-08-06T04:27:12;3.47;;;2.13;;
50605;SDS011;36557;53.572;10.170;2023-08-06T04:29:38;3.72;;;2.28;;
50605;SDS011;36557;53.572;10.170;2023-08-06T04:32:05;5.57;;;2.40;;
50605;SDS011;36557;53.572;10.170;2023-08-06T04:34:31;2.97;;;1.98;;
50605;SDS011;36557;53.572;10.170;2023-08-06T04:37:01;3.72;;;1.92;;
50605;SDS011;36557;53.572;10.170;2023-08-06T04:39:27;4.35;;;2.15;;
50605;SDS011;36557;53.572;10.170;2023-08-06T04:41:54;2.75;;;2.00;;
50605;SDS011;36557;53.572;10.170;2023-08-06T04:44:21;3.20;;;1.98;;
50605;SDS011;36557;53.572;10.170;2023-08-06T04:46:47;5.55;;;2.42;;
50605;SDS011;36557;53.572;10.170;2023-08-06T04:49:13;4.63;;;2.40;;
50605;SDS011;36557;53.572;10.170;2023-08-06T04:51:39;3.83;;;2.17;;
50605;SDS011;36557;53.572;10.170;2023-08-06T04:54:05;2.83;;;2.05;;
50605;SDS011;36557;53.572;10.170;2023-08-06T04:56:31;4.32;;;2.60;;
50605;SDS011;36557;53.572;10.170;2023-08-06T04:58:57;2.60;;;1.92;;
50605;SDS011;36557;53.572;10.170;2023-08-06T05:01:23;5.63;;;2.70;;
50605;SDS011;36557;53.572;10.170;2023-08-06T05:03:49;4.85;;;3.20;;
50605;SDS011;36557;53.572;10.170;2023-08-06T05:06:15;6.55;;;2.50;;
50605;SDS011;36557;53.572;10.170;2023-08-06T05:08:42;5.07;;;2.47;;
50605;SDS011;36557;53.572;10.170;2023-08-06T05:11:08;2.55;;;2.05;;
50605;SDS011;36557;53.572;10.170;2023-08-06T05:13:34;4.97;;;2.47;;
50605;SDS011;36557;53.572;10.170;2023-08-06T05:16:00;6.07;;;2.45;;
50605;SDS011;36557;53.572;10.170;2023-08-06T05:18:26;2.83;;;2.25;;
50605;SDS011;36557;53.572;10.170;2023-08-06T05:20:53;4.70;;;2.67;;
50605;SDS011;36557;53.572;10.170;2023-08-06T05:23:19;3.30;;;2.50;;
50605;SDS011;36557;53.572;10.170;2023-08-06T05:25:45;4.55;;;2.40;;
50605;SDS011;36557;53.572;10.170;2023-08-06T05:28:11;4.25;;;2.22;;
50605;SDS011;36557;53.572;10.170;2023-08-06T05:30:40;3.60;;;2.30;;
50605;SDS011;36557;53.572;10.170;2023-08-06T05:33:06;3.72;;;2.70;;
50605;SDS011;36557;53.572;10.170;2023-08-06T05:35:32;4.50;;;2.42;;
50605;SDS011;36557;53.572;10.170;2023-08-06T05:37:58;5.22;;;2.58;;
50605;SDS011;36557;53.572;10.170;2023-08-06T05:40:24;5.10;;;2.38;;
50605;SDS011;36557;53.572;10.170;2023-08-06T05:42:53;5.22;;;2.33;;
50605;SDS011;36557;53.572;10.170;2023-08-06T05:45:19;4.72;;;2.55;;
50605;SDS011;36557;53.572;10.170;2023-08-06T05:47:47;6.00;;;2.33;;
50605;SDS011;36557;53.572;10.170;2023-08-06T05:50:13;4.32;;;2.88;;
50605;SDS011;36557;53.572;10.170;2023-08-06T05:52:39;5.72;;;2.53;;
50605;SDS011;36557;53.572;10.170;2023-08-06T05:55:06;3.97;;;2.47;;
50605;SDS011;36557;53.572;10.170;2023-08-06T05:57:32;3.97;;;2.25;;
50605;SDS011;36557;53.572;10.170;2023-08-06T05:59:58;3.33;;;2.40;;
50605;SDS011;36557;53.572;10.170;2023-08-06T06:02:24;5.57;;;2.50;;
50605;SDS011;36557;53.572;10.170;2023-08-06T06:04:50;4.35;;;2.88;;
50605;SDS011;36557;53.572;10.170;2023-08-06T06:07:16;6.07;;;2.63;;
50605;SDS011;36557;53.572;10.170;2023-08-06T06:09:42;4.60;;;2.75;;
50605;SDS011;36557;53.572;10.170;2023-08-06T06:12:08;6.03;;;2.70;;
50605;SDS011;36557;53.572;10.170;2023-08-06T06:14:34;6.78;;;3.30;;
50605;SDS011;36557;53.572;10.170;2023-08-06T06:17:00;4.13;;;2.30;;
50605;SDS011;36557;53.572;10.170;2023-08-06T06:19:26;7.65;;;2.88;;
50605;SDS011;36557;53.572;10.170;2023-08-06T06:21:52;4.10;;;2.45;;
50605;SDS011;36557;53.572;10.170;2023-08-06T06:24:19;5.03;;;2.83;;
50605;SDS011;36557;53.572;10.170;2023-08-06T06:26:45;4.93;;;2.47;;
50605;SDS011;36557;53.572;10.170;2023-08-06T06:29:11;4.25;;;2.45;;
50605;SDS011;36557;53.572;10.170;2023-08-06T06:31:37;4.13;;;2.70;;
50605;SDS011;36557;53.572;10.170;2023-08-06T06:34:03;5.68;;;2.80;;
50605;SDS011;36557;53.572;10.170;2023-08-06T06:36:29;5.35;;;2.85;;
50605;SDS011;36557;53.572;10.170;2023-08-06T06:38:55;4.90;;;2.97;;
50605;SDS011;36557;53.572;10.170;2023-08-06T06:41:21;4.72;;;2.63;;
50605;SDS011;36557;53.572;10.170;2023-08-06T06:43:47;4.72;;;2.30;;
50605;SDS011;36557;53.572;10.170;2023-08-06T06:46:13;9.15;;;5.68;;
50605;SDS011;36557;53.572;10.170;2023-08-06T06:48:39;5.93;;;3.05;;
50605;SDS011;36557;53.572;10.170;2023-08-06T06:51:05;6.40;;;3.10;;
50605;SDS011;36557;53.572;10.170;2023-08-06T06:53:31;7.28;;;2.58;;
50605;SDS011;36557;53.572;10.170;2023-08-06T06:56:04;4.38;;;2.90;;
50605;SDS011;36557;53.572;10.170;2023-08-06T06:58:30;5.82;;;2.83;;
50605;SDS011;36557;53.572;10.170;2023-08-06T07:00:56;7.05;;;3.30;;
50605;SDS011;36557;53.572;10.170;2023-08-06T07:03:22;4.72;;;2.72;;
50605;SDS011;36557;53.572;10.170;2023-08-06T07:05:49;6.60;;;2.90;;
50605;SDS011;36557;53.572;10.170;2023-08-06T07:08:15;5.35;;;3.00;;
50605;SDS011;36557;53.572;10.170;2023-08-06T07:10:41;4.43;;;2.75;;
50605;SDS011;36557;53.572;10.170;2023-08-06T07:13:08;4.88;;;3.03;;
50605;SDS011;36557;53.572;10.170;2023-08-06T07:15:34;3.70;;;2.85;;
50605;SDS011;36557;53.572;10.170;2023-08-06T07:18:00;3.70;;;2.67;;
50605;SDS011;36557;53.572;10.170;2023-08-06T07:20:26;4.80;;;3.08;;
50605;SDS011;36557;53.572;10.170;2023-08-06T07:22:56;6.57;;;3.00;;
50605;SDS011;36557;53.572;10.170;2023-08-06T07:25:22;4.53;;;2.80;;
50605;SDS011;36557;53.572;10.170;2023-08-06T07:27:48;4.35;;;2.90;;
50605;SDS011;36557;53.572;10.170;2023-08-06T07:30:14;4.68;;;2.85;;
50605;SDS011;36557;53.572;10.170;2023-08-06T07:32:40;5.18;;;3.13;;
50605;SDS011;36557;53.572;10.170;2023-08-06T07:35:06;5.35;;;2.92;;
50605;SDS011;36557;53.572;10.170;2023-08-06T07:37:34;4.70;;;2.42;;
50605;SDS011;36557;53.572;10.170;2023-08-06T07:40:00;5.57;;;3.00;;
50605;SDS011;36557;53.572;10.170;2023-08-06T07:42:26;4.78;;;2.90;;
50605;SDS011;36557;53.572;10.170;2023-08-06T07:44:53;6.57;;;3.17;;
50605;SDS011;36557;53.572;10.170;2023-08-06T07:47:20;6.63;;;3.30;;
50605;SDS011;36557;53.572;10.170;2023-08-06T07:49:46;7.20;;;3.13;;
50605;SDS011;36557;53.572;10.170;2023-08-06T07:52:12;6.18;;;3.28;;
50605;SDS011;36557;53.572;10.170;2023-08-06T07:54:38;5.68;;;2.95;;
50605;SDS011;36557;53.572;10.170;2023-08-06T07:57:04;5.88;;;3.70;;
50605;SDS011;36557;53.572;10.170;2023-08-06T07:59:30;4.65;;;3.03;;
50605;SDS011;36557;53.572;10.170;2023-08-06T08:01:57;4.93;;;3.08;;
50605;SDS011;36557;53.572;10.170;2023-08-06T08:04:23;8.45;;;3.00;;
50605;SDS011;36557;53.572;10.170;2023-08-06T08:06:49;6.50;;;3.20;;
50605;SDS011;36557;53.572;10.170;2023-08-06T08:09:15;5.03;;;3.28;;
50605;SDS011;36557;53.572;10.170;2023-08-06T08:11:41;8.32;;;3.47;;
50605;SDS011;36557;53.572;10.170;2023-08-06T08:14:08;6.10;;;3.80;;
50605;SDS011;36557;53.572;10.170;2023-08-06T08:16:34;5.70;;;3.00;;
50605;SDS011;36557;53.572;10.170;2023-08-06T08:19:00;5.28;;;3.40;;
50605;SDS011;36557;53.572;10.170;2023-08-06T08:21:26;7.32;;;3.05;;
50605;SDS011;36557;53.572;10.170;2023-08-06T08:23:52;5.75;;;3.60;;
50605;SDS011;36557;53.572;10.170;2023-08-06T08:26:18;5.90;;;3.42;;
50605;SDS011;36557;53.572;10.170;2023-08-06T08:28:44;5.75;;;3.58;;
50605;SDS011;36557;53.572;10.170;2023-08-06T08:31:10;7.05;;;3.40;;
50605;SDS011;36557;53.572;10.170;2023-08-06T08:33:37;6.50;;;3.13;;
50605;SDS011;36557;53.572;10.170;2023-08-06T08:36:03;9.02;;;3.67;;
50605;SDS011;36557;53.572;10.170;2023-08-06T08:38:30;4.70;;;3.35;;
50605;SDS011;36557;53.572;10.170;2023-08-06T08:40:56;5.00;;;3.17;;
50605;SDS011;36557;53.572;10.170;2023-08-06T08:43:22;6.38;;;3.65;;
50605;SDS011;36557;53.572;10.170;2023-08-06T08:45:51;7.40;;;3.65;;
50605;SDS011;36557;53.572;10.170;2023-08-06T08:48:20;8.10;;;3.65;;
50605;SDS011;36557;53.572;10.170;2023-08-06T08:50:47;6.35;;;3.67;;
50605;SDS011;36557;53.572;10.170;2023-08-06T08:53:14;6.03;;;3.75;;
50605;SDS011;36557;53.572;10.170;2023-08-06T08:55:41;6.95;;;3.95;;
50605;SDS011;36557;53.572;10.170;2023-08-06T08:58:10;6.40;;;3.53;;
50605;SDS011;36557;53.572;10.170;2023-08-06T09:00:37;8.18;;;3.45;;
50605;SDS011;36557;53.572;10.170;2023-08-06T09:03:05;6.32;;;3.78;;
50605;SDS011;36557;53.572;10.170;2023-08-06T09:05:31;7.95;;;3.90;;
50605;SDS011;36557;53.572;10.170;2023-08-06T09:08:01;5.55;;;3.60;;
50605;SDS011;36557;53.572;10.170;2023-08-06T09:10:28;5.47;;;3.72;;
50605;SDS011;36557;53.572;10.170;2023-08-06T09:12:55;5.75;;;3.72;;
50605;SDS011;36557;53.572;10.170;2023-08-06T09:15:26;8.25;;;3.90;;
50605;SDS011;36557;53.572;10.170;2023-08-06T09:17:52;6.50;;;3.50;;
50605;SDS011;36557;53.572;10.170;2023-08-06T09:20:19;5.32;;;3.70;;
50605;SDS011;36557;53.572;10.170;2023-08-06T09:22:45;6.43;;;3.63;;
50605;SDS011;36557;53.572;10.170;2023-08-06T09:25:13;6.60;;;4.05;;
50605;SDS011;36557;53.572;10.170;2023-08-06T09:27:48;8.07;;;3.63;;
50605;SDS011;36557;53.572;10.170;2023-08-06T09:30:28;5.57;;;3.22;;
50605;SDS011;36557;53.572;10.170;2023-08-06T09:32:56;5.68;;;3.63;;
50605;SDS011;36557;53.572;10.170;2023-08-06T09:35:22;6.43;;;3.97;;
50605;SDS011;36557;53.572;10.170;2023-08-06T09:37:47;5.85;;;3.78;;
50605;SDS011;36557;53.572;10.170;2023-08-06T09:40:29;6.60;;;3.90;;
50605;SDS011;36557;53.572;10.170;2023-08-06T09:42:57;7.95;;;4.15;;
50605;SDS011;36557;53.572;10.170;2023-08-06T09:45:28;8.52;;;4.05;;
50605;SDS011;36557;53.572;10.170;2023-08-06T09:47:58;5.03;;;3.90;;
50605;SDS011;36557;53.572;10.170;2023-08-06T09:50:28;5.05;;;4.00;;
50605;SDS011;36557;53.572;10.170;2023-08-06T09:52:56;6.80;;;3.78;;
50605;SDS011;36557;53.572;10.170;2023-08-06T09:55:23;5.97;;;4.20;;
50605;SDS011;36557;53.572;10.170;2023-08-06T09:57:51;4.70;;;3.80;;
50605;SDS011;36557;53.572;10.170;2023-08-06T10:00:17;5.95;;;3.60;;
50605;SDS011;36557;53.572;10.170;2023-08-06T10:02:43;5.55;;;3.83;;
50605;SDS011;36557;53.572;10.170;2023-08-06T10:05:10;5.53;;;3.80;;
50605;SDS011;36557;53.572;10.170;2023-08-06T10:07:36;6.75;;;4.10;;
50605;SDS011;36557;53.572;10.170;2023-08-06T10:10:05;5.93;;;3.88;;
50605;SDS011;36557;53.572;10.170;2023-08-06T10:12:43;4.82;;;4.32;;
50605;SDS011;36557;53.572;10.170;2023-08-06T10:15:14;5.97;;;3.83;;
50605;SDS011;36557;53.572;10.170;2023-08-06T10:17:41;6.43;;;3.72;;
50605;SDS011;36557;53.572;10.170;2023-08-06T10:20:08;6.93;;;4.45;;
50605;SDS011;36557;53.572;10.170;2023-08-06T10:22:35;6.35;;;4.38;;
50605;SDS011;36557;53.572;10.170;2023-08-06T10:25:01;4.97;;;4.22;;
50605;SDS011;36557;53.572;10.170;2023-08-06T10:32:56;4.32;;;3.25;;
50605;SDS011;36557;53.572;10.170;2023-08-06T10:35:34;6.47;;;4.22;;
50605;SDS011;36557;53.572;10.170;2023-08-06T10:38:11;5.38;;;3.78;;
50605;SDS011;36557;53.572;10.170;2023-08-06T10:41:01;5.97;;;3.60;;
50605;SDS011;36557;53.572;10.170;2023-08-06T10:43:36;4.85;;;3.40;;
50605;SDS011;36557;53.572;10.170;2023-08-06T10:46:09;4.45;;;3.30;;
50605;SDS011;36557;53.572;10.170;2023-08-06T10:48:37;3.60;;;3.30;;
50605;SDS011;36557;53.572;10.170;2023-08-06T10:51:06;4.00;;;3.22;;
50605;SDS011;36557;53.572;10.170;2023-08-06T10:53:36;4.93;;;3.30;;
50605;SDS011;36557;53.572;10.170;2023-08-06T10:56:16;5.53;;;3.90;;
50605;SDS011;36557;53.572;10.170;2023-08-06T10:58:49;5.03;;;3.50;;
50605;SDS011;36557;53.572;10.170;2023-08-06T11:01:16;5.65;;;3.10;;
50605;SDS011;36557;53.572;10.170;2023-08-06T11:03:42;5.47;;;3.55;;
50605;SDS011;36557;53.572;10.170;2023-08-06T11:06:09;4.63;;;3.67;;
50605;SDS011;36557;53.572;10.170;2023-08-06T11:08:40;4.75;;;3.70;;
50605;SDS011;36557;53.572;10.170;2023-08-06T11:11:12;5.82;;;3.45;;
50605;SDS011;36557;53.572;10.170;2023-08-06T11:13:43;5.07;;;3.47;;
50605;SDS011;36557;53.572;10.170;2023-08-06T11:16:11;4.45;;;3.42;;
50605;SDS011;36557;53.572;10.170;2023-08-06T11:18:43;4.40;;;3.47;;
50605;SDS011;36557;53.572;10.170;2023-08-06T11:21:09;5.68;;;3.70;;
50605;SDS011;36557;53.572;10.170;2023-08-06T11:23:36;7.05;;;3.88;;
50605;SDS011;36557;53.572;10.170;2023-08-06T11:26:02;5.18;;;3.70;;
50605;SDS011;36557;53.572;10.170;2023-08-06T11:28:28;5.13;;;3.25;;
50605;SDS011;36557;53.572;10.170;2023-08-06T11:30:54;4.03;;;3.40;;
50605;SDS011;36557;53.572;10.170;2023-08-06T11:33:22;4.43;;;3.80;;
50605;SDS011;36557;53.572;10.170;2023-08-06T11:35:51;4.30;;;3.20;;
50605;SDS011;36557;53.572;10.170;2023-08-06T11:38:18;5.20;;;3.55;;
50605;SDS011;36557;53.572;10.170;2023-08-06T11:40:44;6.47;;;3.70;;
50605;SDS011;36557;53.572;10.170;2023-08-06T11:43:10;4.38;;;3.35;;
50605;SDS011;36557;53.572;10.170;2023-08-06T11:45:38;5.35;;;3.47;;
50605;SDS011;36557;53.572;10.170;2023-08-06T11:48:03;4.43;;;3.17;;
50605;SDS011;36557;53.572;10.170;2023-08-06T11:50:30;8.15;;;3.53;;
50605;SDS011;36557;53.572;10.170;2023-08-06T11:52:56;4.28;;;3.20;;
50605;SDS011;36557;53.572;10.170;2023-08-06T11:55:24;4.75;;;2.97;;
50605;SDS011;36557;53.572;10.170;2023-08-06T11:57:52;6.07;;;3.97;;
50605;SDS011;36557;53.572;10.170;2023-08-06T12:00:17;6.15;;;3.67;;
50605;SDS011;36557;53.572;10.170;2023-08-06T12:02:45;5.32;;;3.80;;
50605;SDS011;36557;53.572;10.170;2023-08-06T12:05:12;5.03;;;3.80;;
50605;SDS011;36557;53.572;10.170;2023-08-06T12:07:54;5.07;;;4.03;;
50605;SDS011;36557;53.572;10.170;2023-08-06T12:10:22;6.93;;;4.18;;
50605;SDS011;36557;53.572;10.170;2023-08-06T12:12:50;4.38;;;3.15;;
50605;SDS011;36557;53.572;10.170;2023-08-06T12:15:16;5.68;;;3.30;;
50605;SDS011;36557;53.572;10.170;2023-08-06T12:17:41;6.13;;;4.00;;
50605;SDS011;36557;53.572;10.170;2023-08-06T12:20:08;7.07;;;3.40;;
50605;SDS011;36557;53.572;10.170;2023-08-06T12:22:35;4.53;;;3.17;;
50605;SDS011;36557;53.572;10.170;2023-08-06T12:25:02;5.05;;;3.40;;
50605;SDS011;36557;53.572;10.170;2023-08-06T12:27:31;4.75;;;3.38;;
50605;SDS011;36557;53.572;10.170;2023-08-06T12:29:57;4.38;;;3.22;;
50605;SDS011;36557;53.572;10.170;2023-08-06T12:32:23;5.78;;;3.85;;
50605;SDS011;36557;53.572;10.170;2023-08-06T12:34:48;5.07;;;3.20;;
50605;SDS011;36557;53.572;10.170;2023-08-06T12:37:14;5.65;;;3.30;;
50605;SDS011;36557;53.572;10.170;2023-08-06T12:39:40;5.18;;;3.38;;
50605;SDS011;36557;53.572;10.170;2023-08-06T12:42:05;4.15;;;2.90;;
50605;SDS011;36557;53.572;10.170;2023-08-06T12:44:31;6.32;;;3.47;;
50605;SDS011;36557;53.572;10.170;2023-08-06T12:46:58;4.50;;;3.20;;
50605;SDS011;36557;53.572;10.170;2023-08-06T12:49:24;6.00;;;3.25;;
50605;SDS011;36557;53.572;10.170;2023-08-06T12:51:51;4.13;;;2.90;;
50605;SDS011;36557;53.572;10.170;2023-08-06T12:54:18;6.32;;;3.20;;
50605;SDS011;36557;53.572;10.170;2023-08-06T12:56:45;4.97;;;3.28;;
50605;SDS011;36557;53.572;10.170;2023-08-06T12:59:11;6.57;;;3.80;;
50605;SDS011;36557;53.572;10.170;2023-08-06T13:01:37;6.40;;;3.35;;
50605;SDS011;36557;53.572;10.170;2023-08-06T13:04:03;4.97;;;2.95;;
50605;SDS011;36557;53.572;10.170;2023-08-06T13:06:29;6.82;;;3.15;;
50605;SDS011;36557;53.572;10.170;2023-08-06T13:08:55;5.82;;;3.60;;
50605;SDS011;36557;53.572;10.170;2023-08-06T13:11:24;5.03;;;3.00;;
50605;SDS011;36557;53.572;10.170;2023-08-06T13:13:49;4.80;;;3.33;;
50605;SDS011;36557;53.572;10.170;2023-08-06T13:16:15;4.78;;;2.90;;
50605;SDS011;36557;53.572;10.170;2023-08-06T13:18:41;4.65;;;3.38;;
50605;SDS011;36557;53.572;10.170;2023-08-06T13:21:06;6.63;;;3.90;;
50605;SDS011;36557;53.572;10.170;2023-08-06T13:23:32;5.47;;;3.83;;
50605;SDS011;36557;53.572;10.170;2023-08-06T13:25:58;4.07;;;3.22;;
50605;SDS011;36557;53.572;10.170;2023-08-06T13:28:23;6.43;;;3.50;;
50605;SDS011;36557;53.572;10.170;2023-08-06T13:30:49;5.20;;;3.50;;
50605;SDS011;36557;53.572;10.170;2023-08-06T13:33:15;8.00;;;3.90;;
50605;SDS011;36557;53.572;10.170;2023-08-06T13:35:41;4.00;;;3.20;;
50605;SDS011;36557;53.572;10.170;2023-08-06T13:38:07;8.93;;;3.58;;
50605;SDS011;36557;53.572;10.170;2023-08-06T13:40:33;4.97;;;3.30;;
50605;SDS011;36557;53.572;10.170;2023-08-06T13:42:59;6.57;;;3.72;;
50605;SDS011;36557;53.572;10.170;2023-08-06T13:45:25;5.18;;;3.30;;
50605;SDS011;36557;53.572;10.170;2023-08-06T13:47:51;6.07;;;2.80;;
50605;SDS011;36557;53.572;10.170;2023-08-06T13:50:16;4.60;;;3.35;;
50605;SDS011;36557;53.572;10.170;2023-08-06T13:52:42;4.47;;;3.08;;
50605;SDS011;36557;53.572;10.170;2023-08-06T13:55:08;6.50;;;3.20;;
50605;SDS011;36557;53.572;10.170;2023-08-06T13:57:34;11.75;;;5.82;;
50605;SDS011;36557;53.572;10.170;2023-08-06T14:00:00;5.20;;;2.88;;
50605;SDS011;36557;53.572;10.170;2023-08-06T14:02:26;6.57;;;3.83;;
50605;SDS011;36557;53.572;10.170;2023-08-06T14:04:52;5.80;;;3.10;;
50605;SDS011;36557;53.572;10.170;2023-08-06T14:07:19;6.05;;;3.15;;
50605;SDS011;36557;53.572;10.170;2023-08-06T14:09:45;3.33;;;2.80;;
50605;SDS011;36557;53.572;10.170;2023-08-06T14:12:12;4.20;;;2.30;;
50605;SDS011;36557;53.572;10.170;2023-08-06T14:14:39;7.40;;;2.28;;
50605;SDS011;36557;53.572;10.170;2023-08-06T14:17:05;5.50;;;2.00;;
50605;SDS011;36557;53.572;10.170;2023-08-06T14:19:31;2.28;;;1.80;;
50605;SDS011;36557;53.572;10.170;2023-08-06T14:21:56;4.72;;;2.00;;
50605;SDS011;36557;53.572;10.170;2023-08-06T14:24:22;3.50;;;1.90;;
50605;SDS011;36557;53.572;10.170;2023-08-06T14:26:48;2.40;;;1.95;;
50605;SDS011;36557;53.572;10.170;2023-08-06T14:29:14;3.33;;;1.73;;
50605;SDS011;36557;53.572;10.170;2023-08-06T14:31:40;3.63;;;1.70;;
50605;SDS011;36557;53.572;10.170;2023-08-06T14:34:06;4.35;;;1.83;;
50605;SDS011;36557;53.572;10.170;2023-08-06T14:36:32;2.60;;;1.77;;
50605;SDS011;36557;53.572;10.170;2023-08-06T14:38:57;5.15;;;1.60;;
50605;SDS011;36557;53.572;10.170;2023-08-06T14:41:23;2.42;;;1.63;;
50605;SDS011;36557;53.572;10.170;2023-08-06T14:43:49;1.48;;;1.20;;